Time;durP1;ratioP1;P1;durP2;ratioP2;P2;SDS_P1;SDS_P2;PMS_P1;PMS_P2;Temp;Humidity;BMP_temperature;BMP_pressure;BME280_temperature;BME280_humidity;BME280_pressure;Samples;Min_cycle;Max_cycle;Signal;HPM_P1;HPM_P2
2023/08/20 00:02:19;;;;;;;46.25;21.48;;;;;;;18.11;100.00;101554.22;5017076;28;20021;-84
2023/08/20 00:04:46;;;;;;;35.53;19.98;;;;;;;18.06;100.00;101547.72;5016517;28;20044;-85
2023/08/20 00:07:12;;;;;;;30.98;18.02;;;;;;;18.02;100.00;101536.47;5022594;28;20021;-86
2023/08/20 00:09:37;;;;;;;36.83;19.55;;;;;;;18.04;100.00;101547.09;5030779;28;20044;-85
2023/08/20 00:12:04;;;;;;;33.67;15.40;;;;;;;18.11;100.00;101551.53;5032030;28;20013;-84
2023/08/20 00:14:56;;;;;;;28.17;14.65;;;;;;;18.14;100.00;101556.56;5023597;28;20033;-85
2023/08/20 00:17:24;;;;;;;31.88;14.60;;;;;;;18.20;100.00;101568.44;5022528;28;20502;-86
2023/08/20 00:19:50;;;;;;;28.08;13.00;;;;;;;18.04;100.00;101553.31;5001555;28;20029;-85
2023/08/20 00:22:16;;;;;;;24.85;12.23;;;;;;;18.02;100.00;101549.13;5015772;28;20496;-82
2023/08/20 00:24:43;;;;;;;27.63;12.23;;;;;;;18.03;100.00;101542.72;4998340;28;20033;-85
2023/08/20 00:27:08;;;;;;;22.75;12.10;;;;;;;18.03;100.00;101543.56;5020234;28;20025;-83
2023/08/20 00:29:34;;;;;;;23.53;12.03;;;;;;;17.96;100.00;101539.94;5026051;28;20461;-85
2023/08/20 00:31:59;;;;;;;18.95;9.98;;;;;;;18.07;100.00;101561.03;5015920;28;20052;-86
2023/08/20 00:34:24;;;;;;;26.43;13.67;;;;;;;17.80;100.00;101542.88;5017222;28;20041;-83
2023/08/20 00:36:50;;;;;;;30.17;12.53;;;;;;;17.91;100.00;101556.72;5007407;28;20299;-83
2023/08/20 00:39:15;;;;;;;25.73;11.30;;;;;;;17.88;100.00;101553.56;5010658;28;20040;-84
2023/08/20 00:41:41;;;;;;;21.58;10.45;;;;;;;17.93;100.00;101553.81;5025466;28;20371;-86
2023/08/20 00:44:06;;;;;;;20.43;10.43;;;;;;;17.97;100.00;101538.91;5014811;28;20554;-85
2023/08/20 00:46:32;;;;;;;20.37;10.23;;;;;;;17.93;100.00;101551.13;5015008;28;20048;-86
2023/08/20 00:48:57;;;;;;;20.58;10.60;;;;;;;17.98;100.00;101551.41;5028283;28;20115;-86
2023/08/20 00:51:23;;;;;;;28.50;11.30;;;;;;;17.88;100.00;101550.88;5037683;28;20075;-83
2023/08/20 00:53:49;;;;;;;24.15;9.45;;;;;;;17.83;100.00;101548.72;5013435;28;20063;-84
2023/08/20 00:56:15;;;;;;;19.70;10.38;;;;;;;17.80;100.00;101565.28;5014724;28;20021;-86
2023/08/20 00:58:41;;;;;;;22.98;9.68;;;;;;;17.71;100.00;101564.56;5013950;28;20030;-84
2023/08/20 01:01:07;;;;;;;24.98;10.73;;;;;;;17.62;100.00;101560.28;5017666;28;20016;-84
2023/08/20 01:03:32;;;;;;;25.73;12.27;;;;;;;17.62;100.00;101565.69;5034089;28;20600;-85
2023/08/20 01:06:29;;;;;;;24.13;11.03;;;;;;;17.60;100.00;101575.00;5018258;28;20079;-85
2023/08/20 01:09:05;;;;;;;28.95;13.85;;;;;;;17.51;100.00;101576.97;4977974;28;20737;-83
2023/08/20 01:11:37;;;;;;;26.33;11.68;;;;;;;17.47;100.00;101579.22;5020734;28;20550;-84
2023/08/20 01:14:02;;;;;;;26.58;12.25;;;;;;;17.32;100.00;101578.38;5010904;28;20057;-85
2023/08/20 01:16:28;;;;;;;27.55;13.60;;;;;;;17.31;100.00;101584.81;5037207;28;20538;-85
2023/08/20 01:18:54;;;;;;;27.00;13.30;;;;;;;17.21;100.00;101576.19;5028564;28;20040;-85
2023/08/20 01:21:45;;;;;;;26.67;11.77;;;;;;;17.22;100.00;101585.94;5029181;28;20037;-86
2023/08/20 01:24:53;;;;;;;24.48;11.63;;;;;;;17.12;100.00;101588.09;5016233;28;20041;-85
2023/08/20 01:27:45;;;;;;;34.13;12.23;;;;;;;17.16;100.00;101606.41;4953784;28;20133;-84
2023/08/20 01:30:12;;;;;;;27.95;13.07;;;;;;;17.09;100.00;101610.84;5011582;28;20059;-83
2023/08/20 01:32:41;;;;;;;20.17;11.80;;;;;;;17.07;100.00;101608.34;5011630;28;20045;-84
2023/08/20 01:35:11;;;;;;;30.23;12.98;;;;;;;17.01;100.00;101597.47;5028656;28;20052;-86
2023/08/20 01:37:37;;;;;;;28.90;14.77;;;;;;;16.94;100.00;101601.91;5009713;28;20029;-85
2023/08/20 01:40:03;;;;;;;38.80;14.83;;;;;;;16.90;100.00;101606.81;5050730;28;20027;-84
2023/08/20 01:42:29;;;;;;;36.78;12.80;;;;;;;16.86;100.00;101592.06;5034320;28;20033;-85
2023/08/20 01:44:54;;;;;;;26.83;12.70;;;;;;;16.91;100.00;101596.91;5023835;28;20024;-85
2023/08/20 01:47:19;;;;;;;31.07;13.07;;;;;;;16.86;100.00;101606.38;5025297;28;20036;-85
2023/08/20 01:49:45;;;;;;;27.37;13.50;;;;;;;16.77;100.00;101610.13;5030475;28;20029;-82
2023/08/20 01:52:10;;;;;;;41.45;15.98;;;;;;;16.74;100.00;101612.34;5026887;28;20548;-85
2023/08/20 01:54:36;;;;;;;25.67;12.20;;;;;;;16.72;100.00;101612.53;5016359;28;20391;-84
2023/08/20 01:57:01;;;;;;;25.47;13.13;;;;;;;16.73;100.00;101605.28;5018110;28;20116;-84
2023/08/20 01:59:27;;;;;;;34.03;15.70;;;;;;;16.60;100.00;101601.34;5001383;28;20033;-86
2023/08/20 02:01:52;;;;;;;33.30;14.73;;;;;;;16.69;100.00;101615.56;5037158;28;20108;-85
2023/08/20 02:04:18;;;;;;;29.40;14.23;;;;;;;16.72;100.00;101623.31;5010039;28;20112;-85
2023/08/20 02:06:43;;;;;;;28.20;12.60;;;;;;;16.63;100.00;101605.53;5008294;28;20120;-86
2023/08/20 02:09:09;;;;;;;33.23;14.10;;;;;;;16.64;100.00;101608.03;5007902;28;20032;-84
2023/08/20 02:11:35;;;;;;;42.57;16.33;;;;;;;16.59;100.00;101609.59;5026086;28;20029;-85
2023/08/20 02:14:02;;;;;;;43.17;17.05;;;;;;;16.55;100.00;101610.97;5033571;28;20029;-85
2023/08/20 02:16:28;;;;;;;43.78;17.42;;;;;;;16.66;100.00;101622.16;5026199;28;20041;-85
2023/08/20 02:18:53;;;;;;;38.30;16.53;;;;;;;16.62;100.00;101614.63;5023133;28;20029;-84
2023/08/20 02:21:18;;;;;;;42.97;19.30;;;;;;;16.66;100.00;101618.66;5025950;28;20106;-85
2023/08/20 02:23:43;;;;;;;41.63;18.20;;;;;;;16.67;100.00;101614.94;5007793;28;20077;-86
2023/08/20 02:26:09;;;;;;;49.93;20.73;;;;;;;16.72;100.00;101620.63;5029809;28;20032;-85
2023/08/20 02:28:35;;;;;;;43.72;18.38;;;;;;;16.70;100.00;101621.84;5020044;28;20444;-83
2023/08/20 02:31:04;;;;;;;50.03;17.83;;;;;;;16.67;100.00;101623.88;5008261;28;20021;-85
2023/08/20 02:33:29;;;;;;;49.60;21.88;;;;;;;16.59;100.00;101617.69;5031837;28;20036;-85
2023/08/20 02:35:55;;;;;;;54.60;22.40;;;;;;;16.50;100.00;101599.91;5030019;28;20025;-84
2023/08/20 02:38:21;;;;;;;46.55;20.55;;;;;;;16.57;100.00;101615.16;5013457;28;20026;-84
2023/08/20 02:40:46;;;;;;;41.17;18.33;;;;;;;16.54;100.00;101606.63;5013762;28;20215;-84
2023/08/20 02:43:12;;;;;;;45.67;22.70;;;;;;;16.48;100.00;101604.63;5013752;28;20057;-84
2023/08/20 02:45:42;;;;;;;35.50;18.53;;;;;;;16.48;100.00;101608.16;5001956;28;20033;-84
2023/08/20 02:48:07;;;;;;;37.15;17.02;;;;;;;16.41;100.00;101601.81;5023177;28;20116;-84
2023/08/20 02:50:33;;;;;;;33.40;17.23;;;;;;;16.25;100.00;101575.84;4998772;28;20214;-85
2023/08/20 02:52:58;;;;;;;33.30;16.27;;;;;;;16.19;100.00;101573.88;5014523;28;20084;-86
2023/08/20 02:55:23;;;;;;;47.43;19.73;;;;;;;16.24;100.00;101596.56;5025529;28;20594;-84
2023/08/20 02:57:49;;;;;;;52.43;19.53;;;;;;;16.32;100.00;101614.53;5003588;28;20753;-85
2023/08/20 03:00:15;;;;;;;42.90;16.42;;;;;;;16.32;100.00;101606.44;5011537;28;20025;-85
2023/08/20 03:02:41;;;;;;;39.58;16.67;;;;;;;16.32;100.00;101609.16;5013284;28;20037;-83
2023/08/20 03:05:09;;;;;;;32.95;15.05;;;;;;;16.30;100.00;101611.19;5000258;28;20024;-85
2023/08/20 03:07:35;;;;;;;28.25;13.57;;;;;;;16.25;100.00;101602.81;5001275;28;20132;-82
2023/08/20 03:10:00;;;;;;;32.73;16.03;;;;;;;16.25;100.00;101600.94;5027679;28;20119;-84
2023/08/20 03:12:26;;;;;;;33.03;16.33;;;;;;;16.38;100.00;101602.19;5018446;28;20264;-85
2023/08/20 03:14:51;;;;;;;47.37;18.43;;;;;;;16.43;100.00;101610.56;5014448;28;20033;-85
2023/08/20 03:17:16;;;;;;;46.23;19.67;;;;;;;16.55;100.00;101624.47;5017194;28;20020;-85
2023/08/20 03:19:57;;;;;;;42.77;20.37;;;;;;;16.55;100.00;101613.69;5023377;28;20067;-82
2023/08/20 03:22:23;;;;;;;39.85;20.20;;;;;;;16.67;100.00;101625.72;5015647;28;20029;-85
2023/08/20 03:24:49;;;;;;;41.78;19.77;;;;;;;16.68;100.00;101617.44;5006892;28;20025;-84
2023/08/20 03:27:16;;;;;;;44.35;19.00;;;;;;;16.76;100.00;101611.13;5009349;28;20047;-84
2023/08/20 03:29:41;;;;;;;;;;;;;;;16.78;100.00;101614.50;5018777;28;20031;-84
2023/08/20 03:32:06;;;;;;;;;;;;;;;16.75;100.00;101625.66;5024559;28;19908;-85
2023/08/20 03:34:32;;;;;;;43.50;18.10;;;;;;;16.76;100.00;101629.19;5026222;28;19970;-84
2023/08/20 03:36:57;;;;;;;41.83;20.40;;;;;;;16.74;100.00;101626.69;5013844;28;20052;-84
2023/08/20 03:39:22;;;;;;;56.23;20.73;;;;;;;16.74;100.00;101637.47;5047292;28;20029;-85
2023/08/20 03:41:52;;;;;;;55.00;20.43;;;;;;;16.72;100.00;101634.09;5015181;28;20056;-85
2023/08/20 03:44:17;;;;;;;54.50;21.63;;;;;;;16.69;100.00;101623.66;5023390;28;20032;-85
2023/08/20 03:46:43;;;;;;;42.37;18.70;;;;;;;16.72;100.00;101631.41;5030217;28;20029;-83
2023/08/20 03:49:08;;;;;;;57.77;23.30;;;;;;;16.60;100.00;101627.44;5013697;28;20033;-85
2023/08/20 03:51:33;;;;;;;47.10;20.20;;;;;;;16.68;100.00;101635.47;5029031;28;20021;-85
2023/08/20 03:53:59;;;;;;;50.90;23.30;;;;;;;16.61;100.00;101645.31;5028694;28;20037;-84
2023/08/20 03:56:24;;;;;;;60.63;21.20;;;;;;;16.68;100.00;101647.09;5029811;28;20066;-85
2023/08/20 03:58:50;;;;;;;58.57;22.10;;;;;;;16.65;100.00;101652.03;5023283;28;20035;-84
2023/08/20 04:01:15;;;;;;;59.97;22.20;;;;;;;16.56;100.00;101648.56;5027182;28;20045;-85
2023/08/20 04:03:41;;;;;;;54.08;22.08;;;;;;;16.56;100.00;101645.84;5012742;28;20094;-84
2023/08/20 04:06:07;;;;;;;64.30;20.60;;;;;;;16.55;100.00;101648.72;5007470;28;20163;-85
2023/08/20 04:08:32;;;;;;;63.13;22.05;;;;;;;16.59;100.00;101652.75;5015287;28;20083;-85
2023/08/20 04:10:57;;;;;;;50.73;20.93;;;;;;;16.59;100.00;101658.13;5039023;28;20029;-84
2023/08/20 04:13:23;;;;;;;52.43;20.80;;;;;;;16.56;100.00;101650.41;5017605;28;20120;-83
2023/08/20 04:15:48;;;;;;;48.73;21.43;;;;;;;16.51;100.00;101652.81;5001539;28;20128;-84
2023/08/20 04:18:13;;;;;;;51.93;20.53;;;;;;;16.52;100.00;101657.19;5003213;28;20892;-85
2023/08/20 04:20:39;;;;;;;46.37;18.83;;;;;;;16.64;100.00;101661.94;4991667;28;20670;-82
2023/08/20 04:23:04;;;;;;;49.37;19.77;;;;;;;16.60;100.00;101657.09;5039752;28;20063;-84
2023/08/20 04:25:30;;;;;;;47.77;22.37;;;;;;;16.59;100.00;101650.03;5021509;28;21432;-82
2023/08/20 04:27:55;;;;;;;53.33;19.57;;;;;;;16.66;100.00;101659.09;5007210;28;20500;-83
2023/08/20 04:30:21;;;;;;;43.90;20.08;;;;;;;16.61;100.00;101669.56;5034846;28;20052;-83
2023/08/20 04:32:46;;;;;;;48.57;19.80;;;;;;;16.62;100.00;101665.84;5032145;28;20431;-85
2023/08/20 04:35:12;;;;;;;44.20;19.57;;;;;;;16.69;100.00;101664.09;5027163;28;20028;-85
2023/08/20 04:37:39;;;;;;;45.30;19.40;;;;;;;16.56;100.00;101663.88;5035312;28;20029;-82
2023/08/20 04:40:07;;;;;;;46.30;18.08;;;;;;;16.60;100.00;101660.66;5034097;28;20390;-84
2023/08/20 04:42:33;;;;;;;40.75;18.02;;;;;;;16.76;100.00;101665.06;5010239;28;20037;-84
2023/08/20 04:44:59;;;;;;;41.53;18.17;;;;;;;16.83;100.00;101674.16;5024488;28;20035;-84
2023/08/20 04:47:25;;;;;;;41.97;17.35;;;;;;;16.78;100.00;101656.81;5023287;28;20492;-84
2023/08/20 04:49:51;;;;;;;27.40;15.03;;;;;;;16.79;100.00;101662.06;5022686;28;20124;-85
2023/08/20 04:52:16;;;;;;;36.75;16.73;;;;;;;16.71;100.00;101656.69;5011468;28;20090;-85
2023/08/20 04:54:43;;;;;;;32.75;15.27;;;;;;;16.78;100.00;101668.41;5007781;28;20032;-85
2023/08/20 04:57:08;;;;;;;33.87;15.27;;;;;;;16.80;100.00;101658.31;5034018;28;20028;-84
2023/08/20 04:59:34;;;;;;;35.40;15.60;;;;;;;16.75;100.00;101652.59;5027640;28;20029;-84
2023/08/20 05:02:02;;;;;;;34.65;14.52;;;;;;;16.81;100.00;101651.94;5051324;28;20045;-85
2023/08/20 05:04:38;;;;;;;40.58;17.38;;;;;;;16.76;100.00;101651.56;5019340;28;20060;-82
2023/08/20 05:07:04;;;;;;;35.42;15.60;;;;;;;16.73;100.00;101648.41;5033441;28;20074;-85
2023/08/20 05:09:30;;;;;;;39.75;16.92;;;;;;;16.74;100.00;101645.56;5017676;28;20017;-85
2023/08/20 05:11:55;;;;;;;32.20;14.82;;;;;;;16.97;100.00;101656.31;5034363;28;20036;-84
2023/08/20 05:14:20;;;;;;;34.60;15.37;;;;;;;16.92;100.00;101644.41;5010366;28;20108;-83
2023/08/20 05:16:46;;;;;;;36.83;16.63;;;;;;;16.85;100.00;101636.22;5031176;28;20072;-85
2023/08/20 05:19:11;;;;;;;39.30;19.03;;;;;;;16.88;100.00;101633.16;5030834;28;20033;-84
2023/08/20 05:21:37;;;;;;;37.23;17.57;;;;;;;16.88;100.00;101628.59;4996242;28;20084;-84
2023/08/20 05:24:03;;;;;;;34.57;18.00;;;;;;;16.85;100.00;101641.59;5033034;28;20028;-83
2023/08/20 05:26:28;;;;;;;;;;;;;;;16.97;100.00;101647.41;5010044;28;20480;-84
2023/08/20 05:28:53;;;;;;;28.00;14.75;;;;;;;16.88;100.00;101631.31;5025411;28;19915;-85
2023/08/20 05:31:19;;;;;;;26.90;15.07;;;;;;;17.06;100.00;101624.72;5006656;28;20029;-83
2023/08/20 05:33:44;;;;;;;37.20;17.03;;;;;;;16.90;100.00;101627.56;5043949;28;20120;-84
2023/08/20 05:36:09;;;;;;;25.00;12.60;;;;;;;17.09;100.00;101633.28;5014932;28;20093;-83
2023/08/20 05:38:35;;;;;;;28.98;14.40;;;;;;;17.17;100.00;101635.06;5004003;28;20143;-84
2023/08/20 05:41:01;;;;;;;26.13;14.77;;;;;;;17.08;100.00;101622.69;5024467;28;20029;-86
2023/08/20 05:43:26;;;;;;;31.43;17.07;;;;;;;17.08;100.00;101617.28;5016347;28;20036;-86
2023/08/20 05:45:51;;;;;;;30.10;16.07;;;;;;;17.08;100.00;101630.78;5000765;28;20531;-85
2023/08/20 05:48:20;;;;;;;28.58;14.77;;;;;;;17.00;100.00;101630.88;5000386;28;20748;-83
2023/08/20 05:50:46;;;;;;;23.27;13.00;;;;;;;17.16;100.00;101635.22;5021645;28;20029;-84
2023/08/20 05:53:11;;;;;;;21.77;11.83;;;;;;;17.17;100.00;101635.06;5021948;28;20036;-83
2023/08/20 05:55:37;;;;;;;25.13;13.57;;;;;;;17.09;100.00;101635.13;5033321;28;20024;-84
2023/08/20 06:00:29;;;;;;;21.80;10.50;;;;;;;17.10;100.00;101634.13;5021144;22;20571;-87
2023/08/20 06:02:54;;;;;;;19.80;10.32;;;;;;;17.02;100.00;101631.50;4992409;28;20037;-87
2023/08/20 06:05:22;;;;;;;17.40;9.10;;;;;;;17.22;100.00;101643.44;5004311;28;20036;-89
2023/08/20 06:07:48;;;;;;;20.80;10.27;;;;;;;17.28;100.00;101637.31;5003460;28;20049;-86
2023/08/20 06:10:13;;;;;;;25.10;11.40;;;;;;;17.17;100.00;101651.25;5003026;28;20025;-87
2023/08/20 06:12:39;;;;;;;15.07;9.77;;;;;;;17.26;100.00;101677.13;5005295;28;20037;-85
2023/08/20 06:15:05;;;;;;;21.48;8.93;;;;;;;17.42;100.00;101688.78;5020597;28;20311;-85
2023/08/20 06:17:31;;;;;;;13.88;8.45;;;;;;;17.65;100.00;101702.19;4989395;28;20048;-87
2023/08/20 06:19:56;;;;;;;20.10;11.45;;;;;;;17.72;100.00;101703.13;5004393;28;20029;-85
2023/08/20 06:22:21;;;;;;;19.53;10.70;;;;;;;17.56;100.00;101695.22;5012290;28;20164;-85
2023/08/20 06:24:47;;;;;;;21.27;12.00;;;;;;;17.51;100.00;101698.47;5012539;28;20065;-85
2023/08/20 06:27:12;;;;;;;19.87;11.33;;;;;;;17.36;100.00;101700.31;5012757;28;20029;-86
2023/08/20 06:29:38;;;;;;;20.63;10.80;;;;;;;17.29;100.00;101700.22;5012451;28;20041;-86
2023/08/20 06:32:04;;;;;;;26.38;13.13;;;;;;;17.32;100.00;101699.00;5004802;28;20527;-87
2023/08/20 06:34:30;;;;;;;27.23;13.82;;;;;;;17.30;100.00;101680.28;4996095;28;20447;-88
2023/08/20 06:36:55;;;;;;;23.83;12.23;;;;;;;17.63;100.00;101707.81;4995730;28;20026;-87
2023/08/20 06:39:21;;;;;;;21.53;12.43;;;;;;;17.82;100.00;101705.59;5001132;28;20034;-86
2023/08/20 06:41:46;;;;;;;20.10;10.97;;;;;;;17.97;100.00;101710.97;4988328;28;20034;-86
2023/08/20 06:44:19;;;;;;;16.75;9.27;;;;;;;17.99;100.00;101696.25;4970366;28;20052;-86
2023/08/20 06:46:44;;;;;;;25.93;11.70;;;;;;;17.83;100.00;101688.34;5008394;28;20041;-87
2023/08/20 06:49:09;;;;;;;23.20;11.37;;;;;;;17.58;100.00;101691.28;4988156;28;20025;-87
2023/08/20 06:51:35;;;;;;;17.27;10.37;;;;;;;17.72;100.00;101687.78;5006625;28;20496;-86
2023/08/20 06:54:00;;;;;;;18.83;11.17;;;;;;;17.94;100.00;101687.88;5010294;28;20512;-87
2023/08/20 06:56:25;;;;;;;19.67;11.03;;;;;;;17.88;100.00;101677.81;5012873;28;20033;-85
2023/08/20 06:58:51;;;;;;;16.00;8.87;;;;;;;18.21;100.00;101691.72;5004740;28;20054;-86
2023/08/20 07:01:16;;;;;;;17.93;8.80;;;;;;;18.14;100.00;101675.47;4981321;28;20062;-87
2023/08/20 07:03:43;;;;;;;20.57;9.87;;;;;;;18.33;100.00;101683.97;4995810;28;20044;-87
2023/08/20 07:06:09;;;;;;;20.25;10.23;;;;;;;18.42;100.00;101677.41;4995486;28;20040;-86
2023/08/20 07:08:36;;;;;;;14.88;8.30;;;;;;;18.83;100.00;101676.00;5003854;28;20037;-88
2023/08/20 07:11:02;;;;;;;18.08;8.00;;;;;;;19.12;100.00;101666.84;4995025;28;20032;-87
2023/08/20 07:13:27;;;;;;;13.43;7.43;;;;;;;19.21;100.00;101646.72;4988023;28;20037;-86
2023/08/20 07:15:54;;;;;;;13.40;6.63;;;;;;;19.33;100.00;101637.00;5011611;28;20036;-87
2023/08/20 07:18:20;;;;;;;19.00;8.18;;;;;;;19.93;100.00;101631.09;4997256;28;20025;-87
2023/08/20 07:20:45;;;;;;;18.87;6.60;;;;;;;20.60;100.00;101583.25;4988678;28;20507;-88
2023/08/20 07:23:11;;;;;;;11.13;5.40;;;;;;;21.77;100.00;101519.03;5009712;28;20025;-88
2023/08/20 07:25:38;;;;;;;16.55;7.75;;;;;;;21.62;100.00;101366.34;5008658;28;20029;-86
2023/08/20 07:28:04;;;;;;;15.73;6.90;;;;;;;21.88;100.00;101355.25;5008024;28;20040;-87
2023/08/20 07:30:30;;;;;;;13.88;5.53;;;;;;;21.92;100.00;101315.69;5011689;28;20501;-88
2023/08/20 07:32:55;;;;;;;14.50;5.68;;;;;;;22.95;100.00;101297.75;4987597;28;20026;-87
2023/08/20 07:35:21;;;;;;;14.80;6.13;;;;;;;23.53;100.00;101160.00;5009476;28;20110;-87
2023/08/20 07:37:46;;;;;;;8.93;6.80;;;;;;;22.74;100.00;101032.38;5005891;28;20264;-86
2023/08/20 07:40:13;;;;;;;15.85;6.18;;;;;;;21.62;100.00;100984.09;5002747;28;20036;-86
2023/08/20 07:42:41;;;;;;;12.60;6.75;;;;;;;22.33;100.00;101125.75;4987878;28;20060;-86
2023/08/20 07:45:07;;;;;;;13.55;6.45;;;;;;;22.60;100.00;101006.47;5002071;28;20062;-86
2023/08/20 07:47:41;;;;;;;;;;;;;;;22.48;100.00;101024.69;5005815;28;20033;-86
2023/08/20 07:50:07;;;;;;;16.35;6.40;;;;;;;21.50;100.00;100994.91;4993181;28;19913;-87
2023/08/20 07:52:33;;;;;;;17.75;6.10;;;;;;;21.02;100.00;101277.13;4978300;28;20028;-86
2023/08/20 07:54:58;;;;;;;12.87;5.70;;;;;;;21.49;100.00;101226.88;4990737;28;20087;-86
2023/08/20 07:57:24;;;;;;;16.85;5.60;;;;;;;22.66;100.00;101223.19;4989606;28;20284;-86
2023/08/20 07:59:50;;;;;;;11.90;5.45;;;;;;;22.40;100.00;101065.81;4997654;28;20126;-87
2023/08/20 08:02:15;;;;;;;15.27;6.28;;;;;;;22.50;100.00;101090.53;4991973;28;20018;-87
2023/08/20 08:04:42;;;;;;;12.05;5.78;;;;;;;23.11;100.00;100983.13;4983995;28;20741;-87
2023/08/20 08:07:08;;;;;;;12.65;5.45;;;;;;;22.65;100.00;100960.31;4983711;28;20484;-87
2023/08/20 08:09:33;;;;;;;16.08;6.63;;;;;;;22.28;100.00;101060.34;4988046;28;20041;-86
2023/08/20 08:11:59;;;;;;;16.17;6.83;;;;;;;22.20;100.00;100958.16;4977007;28;20018;-87
2023/08/20 08:14:25;;;;;;;13.95;6.63;;;;;;;22.29;100.00;101119.13;4987058;28;20825;-87
2023/08/20 08:16:53;;;;;;;14.57;7.05;;;;;;;22.62;100.00;101194.81;4995554;28;20026;-87
2023/08/20 08:19:20;;;;;;;18.83;8.27;;;;;;;20.86;100.00;101105.63;4967969;28;20029;-87
2023/08/20 08:21:46;;;;;;;16.10;8.20;;;;;;;22.65;100.00;101428.38;5000424;28;20033;-87
2023/08/20 08:24:11;;;;;;;;;;;;;;;22.49;100.00;101167.78;4992524;28;20411;-87
2023/08/20 08:26:37;;;;;;;14.60;7.40;;;;;;;22.13;100.00;101257.34;4994540;28;19916;-87
2023/08/20 08:29:03;;;;;;;16.42;9.15;;;;;;;22.88;100.00;101084.69;4993311;28;20038;-87
2023/08/20 08:31:28;;;;;;;;;;;;;;;23.33;100.00;101269.34;4990905;28;20022;-87
2023/08/20 08:33:53;;;;;;;14.77;7.57;;;;;;;23.52;100.00;100964.88;5017534;28;19924;-87
2023/08/20 08:36:19;;;;;;;15.87;9.00;;;;;;;23.10;100.00;100820.81;4990065;28;20019;-88
2023/08/20 08:38:45;;;;;;;16.40;7.60;;;;;;;23.21;100.00;100821.00;4987860;28;20084;-88
2023/08/20 08:41:11;;;;;;;17.40;7.50;;;;;;;23.98;100.00;100984.00;4990873;28;20114;-88
2023/08/20 08:43:38;;;;;;;13.68;7.57;;;;;;;24.97;100.00;100895.97;4984152;28;20038;-87
2023/08/20 08:46:07;;;;;;;16.70;6.47;;;;;;;25.48;100.00;100898.50;4993434;28;20025;-88
2023/08/20 08:48:35;;;;;;;13.52;7.90;;;;;;;25.42;100.00;100691.81;4989771;28;20412;-87
2023/08/20 08:51:01;;;;;;;17.30;7.82;;;;;;;24.99;100.00;100426.84;4988126;28;20026;-90
2023/08/20 08:53:26;;;;;;;;;;;;;;;24.61;100.00;100674.47;5006940;28;20038;-89
2023/08/20 08:55:51;;;;;;;10.82;5.10;;;;;;;25.09;100.00;100605.50;4984578;28;20009;-88
2023/08/20 08:58:17;;;;;;;16.05;5.35;;;;;;;26.12;100.00;100788.25;5010793;28;20480;-89
2023/08/20 09:00:42;;;;;;;9.77;4.97;;;;;;;26.14;100.00;100604.72;4994663;28;20033;-89
2023/08/20 09:03:08;;;;;;;11.75;5.50;;;;;;;26.54;100.00;100554.69;5028414;28;20379;-88
2023/08/20 09:05:54;;;;;;;13.00;4.20;;;;;;;27.11;100.00;100377.38;4988181;28;20041;-88
2023/08/20 09:08:20;;;;;;;10.45;4.65;;;;;;;27.42;98.85;100295.00;4995439;28;20052;-89
2023/08/20 09:10:46;;;;;;;9.43;4.07;;;;;;;26.69;97.38;100102.94;4991982;28;20084;-89
2023/08/20 09:13:11;;;;;;;12.90;3.55;;;;;;;27.30;95.65;100238.63;5005328;28;20037;-89
2023/08/20 09:15:36;;;;;;;12.98;4.20;;;;;;;26.69;97.16;100214.34;4999273;28;20035;-89
2023/08/20 09:18:03;;;;;;;;;;;;;;;27.84;94.00;100341.03;4997653;28;20046;-89
2023/08/20 09:20:38;;;;;;;8.18;2.90;;;;;;;27.89;92.54;100286.13;4986800;28;20526;-89
2023/08/20 09:23:10;;;;;;;9.18;2.55;;;;;;;27.59;90.99;100152.84;4995698;28;20041;-89
2023/08/20 09:25:35;;;;;;;11.00;3.00;;;;;;;27.90;93.01;100382.94;4997426;28;20119;-89
2023/08/20 09:28:03;;;;;;;10.52;3.28;;;;;;;27.49;86.06;99763.72;4981819;28;20064;-89
2023/08/20 09:30:28;;;;;;;8.80;2.95;;;;;;;27.60;87.91;100054.97;4988318;28;20038;-87
2023/08/20 09:33:16;;;;;;;9.52;2.75;;;;;;;27.57;86.49;100045.41;4984885;28;20107;-90
2023/08/20 09:35:53;;;;;;;9.40;2.78;;;;;;;27.86;86.21;100108.44;5004411;28;20042;-88
2023/08/20 09:38:21;;;;;;;6.03;2.25;;;;;;;27.81;84.77;100000.66;4994967;28;20033;-89
2023/08/20 09:40:56;;;;;;;11.25;2.90;;;;;;;28.31;83.90;100091.63;4993191;28;20060;-88
2023/08/20 09:43:26;;;;;;;5.47;2.57;;;;;;;27.22;84.39;99863.84;5006197;28;20040;-89
2023/08/20 09:45:54;;;;;;;9.40;2.85;;;;;;;27.19;83.60;99801.41;4998624;28;20659;-91
2023/08/20 09:48:20;;;;;;;7.00;2.65;;;;;;;27.18;87.45;100240.88;4986587;28;20030;-90
2023/08/20 09:50:51;;;;;;;9.38;3.00;;;;;;;27.90;87.84;100448.78;4990772;28;20037;-89
2023/08/20 09:53:33;;;;;;;9.18;2.53;;;;;;;28.31;82.11;100031.25;5005112;28;20403;-88
2023/08/20 09:56:10;;;;;;;9.27;2.42;;;;;;;27.38;81.29;99765.81;5013559;28;20045;-88
2023/08/20 09:58:38;;;;;;;12.93;2.55;;;;;;;27.10;81.33;99701.81;4987657;28;20046;-88
2023/08/20 10:01:05;;;;;;;10.00;2.83;;;;;;;27.73;80.61;99885.06;5010848;28;20026;-87
2023/08/20 10:03:30;;;;;;;8.80;2.10;;;;;;;27.21;79.38;99643.06;5002478;28;20096;-87
2023/08/20 10:05:58;;;;;;;7.00;1.88;;;;;;;27.94;80.57;99989.00;5010185;28;20480;-88
2023/08/20 10:08:24;;;;;;;9.65;2.08;;;;;;;27.84;75.75;99509.19;4991132;28;20051;-88
2023/08/20 10:10:49;;;;;;;15.30;3.40;;;;;;;27.93;76.84;99713.06;5014268;28;21005;-87
2023/08/20 10:13:15;;;;;;;8.88;2.05;;;;;;;28.32;77.34;99885.47;5014125;28;20037;-87
2023/08/20 10:15:42;;;;;;;8.98;2.55;;;;;;;28.98;74.35;99753.47;4997604;28;20128;-87
2023/08/20 10:18:07;;;;;;;8.00;2.00;;;;;;;28.36;74.40;99644.16;4979588;28;20030;-88
2023/08/20 10:20:33;;;;;;;6.10;1.88;;;;;;;27.31;76.68;99601.78;5005827;28;20037;-88
2023/08/20 10:23:02;;;;;;;;;;;;;;;28.77;77.77;100126.66;5013595;28;20049;-88
2023/08/20 10:25:29;;;;;;;8.63;1.90;;;;;;;28.89;74.42;99771.81;5005672;28;20449;-87
2023/08/20 10:28:11;;;;;;;7.30;2.50;;;;;;;29.09;70.97;99506.81;4989194;28;20068;-88
2023/08/20 10:30:37;;;;;;;7.10;2.50;;;;;;;28.43;70.56;99241.09;4999389;28;20131;-88
2023/08/20 10:33:03;;;;;;;;;;;;;;;28.10;70.73;99270.81;4998014;28;20021;-88
2023/08/20 10:35:46;;;;;;;;;;;;;;;26.77;71.33;99024.78;4997227;28;19913;-88
2023/08/20 10:38:16;;;;;;;5.70;1.85;;;;;;;28.12;72.29;99634.25;5011002;28;19913;-88
2023/08/20 10:40:58;;;;;;;4.50;1.90;;;;;;;28.79;73.21;99879.97;4991104;28;20033;-88
2023/08/20 10:43:45;;;;;;;7.53;2.25;;;;;;;28.92;72.98;99911.31;4977646;28;20052;-88
2023/08/20 10:46:22;;;;;;;7.03;1.58;;;;;;;28.87;70.49;99541.41;4994214;28;20076;-90
2023/08/20 10:48:49;;;;;;;4.85;1.88;;;;;;;28.75;70.06;99549.38;4984353;28;20037;-89
2023/08/20 10:51:24;;;;;;;8.43;1.60;;;;;;;29.18;69.17;99577.16;4995018;28;20022;-88
2023/08/20 10:54:04;;;;;;;8.88;2.22;;;;;;;28.50;67.39;99145.38;5004800;28;20392;-87
2023/08/20 10:56:47;;;;;;;8.60;1.95;;;;;;;29.56;66.72;99498.91;5012695;28;20435;-88
2023/08/20 10:59:21;;;;;;;6.05;2.15;;;;;;;29.75;67.27;99595.72;4999824;28;20042;-88
2023/08/20 11:01:48;;;;;;;6.70;1.50;;;;;;;29.44;64.17;99145.69;5018331;28;20041;-88
2023/08/20 11:04:21;;;;;;;5.97;1.65;;;;;;;29.90;64.89;99381.81;4995826;28;20403;-89
2023/08/20 11:06:52;;;;;;;6.53;1.75;;;;;;;29.53;63.66;99202.59;5012672;28;20033;-88
2023/08/20 11:09:17;;;;;;;5.38;1.80;;;;;;;29.91;63.80;99377.94;5021264;28;20037;-89
2023/08/20 11:11:43;;;;;;;;;;;;;;;29.82;66.79;99697.03;5006740;28;20026;-88
2023/08/20 11:14:13;;;;;;;;;;;;;;;29.09;62.86;98993.03;4998830;28;19913;-88
2023/08/20 11:16:38;;;;;;;5.78;1.60;;;;;;;29.76;62.65;99194.97;4988931;28;19963;-88